createdAt,value
2018-12-27T00:04:51.825Z,97.80
2018-12-27T00:09:55.500Z,96.90
2018-12-27T00:14:59.179Z,97.20
2018-12-27T00:20:02.889Z,97.10
2018-12-27T00:25:06.736Z,96.70
2018-12-27T00:30:10.881Z,96.50
2018-12-27T00:35:14.705Z,96.50
2018-12-27T00:40:18.537Z,97.20
2018-12-27T00:45:22.385Z,96.70
2018-12-27T00:50:26.231Z,96.70
2018-12-27T00:55:30.112Z,96.50
2018-12-27T01:00:34.005Z,96.50
2018-12-27T01:05:37.864Z,96.40
2018-12-27T01:10:41.745Z,96.30
2018-12-27T01:15:45.559Z,96.80
2018-12-27T01:20:49.407Z,96.10
2018-12-27T01:25:53.582Z,96.30
2018-12-27T01:30:57.818Z,96.20
2018-12-27T01:36:01.633Z,96.10
2018-12-27T01:41:05.461Z,95.90
2018-12-27T01:46:09.276Z,96.10
2018-12-27T01:51:13.145Z,95.70
2018-12-27T01:56:16.988Z,95.60
2018-12-27T02:01:20.833Z,95.60
2018-12-27T02:06:24.741Z,95.50
2018-12-27T02:11:28.611Z,95.50
2018-12-27T02:16:32.516Z,95.60
2018-12-27T02:21:36.428Z,95.80
2018-12-27T02:26:40.315Z,96.10
2018-12-27T02:31:44.287Z,96.40
2018-12-27T02:36:48.557Z,96.70
2018-12-27T02:41:52.384Z,97.20
2018-12-27T02:46:56.208Z,97.60
2018-12-27T02:52:00.219Z,97.40
2018-12-27T02:57:04.273Z,97.70
2018-12-27T03:02:08.097Z,97.80
2018-12-27T03:07:11.936Z,98.20
2018-12-27T03:12:15.777Z,98.00
2018-12-27T03:17:19.892Z,97.90
2018-12-27T03:22:23.712Z,98.10
2018-12-27T03:27:27.853Z,98.70
2018-12-27T03:32:31.679Z,98.40
2018-12-27T03:37:35.497Z,98.10
2018-12-27T03:42:39.320Z,97.80
2018-12-27T03:47:43.158Z,98.00
2018-12-27T03:52:47.030Z,98.00
2018-12-27T03:57:50.862Z,97.20
2018-12-27T04:02:55.351Z,97.70
2018-12-27T04:07:59.172Z,98.10
2018-12-27T04:13:03.320Z,98.10
2018-12-27T04:18:06.995Z,97.80
2018-12-27T04:23:10.728Z,96.80
2018-12-27T04:28:14.691Z,97.40
2018-12-27T04:33:19.012Z,98.20
2018-12-27T04:38:23.041Z,97.60
2018-12-27T04:43:27.102Z,97.80
2018-12-27T04:48:30.822Z,97.20
2018-12-27T04:53:34.535Z,97.60
2018-12-27T04:58:38.526Z,97.90
2018-12-27T05:03:42.211Z,98.30
2018-12-27T05:08:46.151Z,98.10
2018-12-27T05:13:50.108Z,98.10
2018-12-27T05:18:53.799Z,97.80
2018-12-27T05:23:57.490Z,97.70
2018-12-27T05:29:01.151Z,97.00
2018-12-27T05:34:05.181Z,96.90
2018-12-27T05:39:09.223Z,96.90
2018-12-27T05:44:12.929Z,96.60
2018-12-27T05:49:16.624Z,96.50
2018-12-27T05:54:20.353Z,96.60
2018-12-27T05:59:24.038Z,96.60
2018-12-27T06:04:33.793Z,96.50
2018-12-27T06:09:33.160Z,96.90
2018-12-27T06:14:37.217Z,96.60
2018-12-27T06:19:40.915Z,96.50
2018-12-27T06:24:44.905Z,96.50
2018-12-27T06:29:48.996Z,96.20
2018-12-27T06:34:52.705Z,96.40
2018-12-27T06:39:56.933Z,95.80
2018-12-27T06:45:00.676Z,95.90
2018-12-27T06:50:04.761Z,95.80
2018-12-27T06:55:08.493Z,95.50
2018-12-27T07:00:12.174Z,95.40
2018-12-27T07:05:15.861Z,95.80
2018-12-27T07:10:19.561Z,96.50
2018-12-27T07:15:23.232Z,96.50
2018-12-27T07:20:26.935Z,96.90
2018-12-27T07:25:30.904Z,97.30
2018-12-27T07:30:34.637Z,97.10
2018-12-27T07:35:38.317Z,96.10
2018-12-27T07:40:42.027Z,96.00
2018-12-27T07:45:45.741Z,96.40
2018-12-27T07:50:49.691Z,95.80
2018-12-27T07:55:53.390Z,95.50
2018-12-27T08:00:57.109Z,95.20
2018-12-27T08:06:00.827Z,95.10
2018-12-27T08:11:04.519Z,95.30
2018-12-27T08:16:08.528Z,95.70
2018-12-27T08:21:12.248Z,96.00
2018-12-27T08:26:15.968Z,95.40
2018-12-27T08:31:19.927Z,95.30
2018-12-27T08:36:23.597Z,95.00
2018-12-27T08:41:27.252Z,95.80
2018-12-27T08:46:30.928Z,95.50
2018-12-27T08:51:34.621Z,95.60
2018-12-27T08:56:38.560Z,95.60
2018-12-27T09:01:42.245Z,95.60
2018-12-27T09:06:46.333Z,95.80
2018-12-27T09:11:50.035Z,95.70
2018-12-27T09:16:53.749Z,95.00
2018-12-27T09:21:57.425Z,94.80
2018-12-27T09:27:01.088Z,94.20
2018-12-27T09:32:04.774Z,94.10
2018-12-27T09:37:08.715Z,92.50
2018-12-27T09:42:12.689Z,92.00
2018-12-27T09:47:16.768Z,91.20
2018-12-27T09:52:20.812Z,90.50
2018-12-27T09:57:24.881Z,90.10
2018-12-27T10:02:28.877Z,90.10
2018-12-27T10:07:32.549Z,89.10
2018-12-27T10:12:36.223Z,88.60
2018-12-27T10:17:40.140Z,89.10
2018-12-27T10:22:43.869Z,86.80
2018-12-27T10:27:47.895Z,86.60
2018-12-27T10:32:51.657Z,86.90
2018-12-27T10:37:55.333Z,85.90
2018-12-27T10:42:59.004Z,81.90
2018-12-27T10:48:02.667Z,80.00
2018-12-27T10:53:06.328Z,80.20
2018-12-27T10:58:10.057Z,78.20
2018-12-27T11:03:14.101Z,77.00
2018-12-27T11:08:18.057Z,76.10
2018-12-27T11:13:21.746Z,63.20
2018-12-27T11:18:25.416Z,51.20
2018-12-27T11:23:29.103Z,44.80
2018-12-27T11:28:32.788Z,40.30
2018-12-27T11:33:36.483Z,40.00
2018-12-27T11:38:40.169Z,43.10
2018-12-27T11:43:43.911Z,41.00
2018-12-27T11:48:48.117Z,41.00
2018-12-27T11:53:51.804Z,39.00
2018-12-27T11:58:55.481Z,39.20
2018-12-27T12:03:59.157Z,37.40
2018-12-27T12:09:03.413Z,39.70
2018-12-27T12:14:07.474Z,43.80
2018-12-27T12:19:11.197Z,43.30
2018-12-27T12:24:14.897Z,40.60
2018-12-27T12:29:18.817Z,41.40
2018-12-27T12:34:22.509Z,42.40
2018-12-27T12:39:26.474Z,42.40
2018-12-27T12:44:30.132Z,42.60
2018-12-27T12:49:33.807Z,38.50
2018-12-27T12:54:37.512Z,37.20
2018-12-27T12:59:41.274Z,39.70
2018-12-27T13:04:45.318Z,41.40
2018-12-27T13:09:48.980Z,48.00
2018-12-27T13:14:52.686Z,53.00
2018-12-27T13:19:56.352Z,57.50
2018-12-27T13:25:00.035Z,59.50
2018-12-27T13:30:03.709Z,62.80
2018-12-27T13:35:07.397Z,65.30
2018-12-27T13:40:11.087Z,65.40
2018-12-27T13:45:15.092Z,67.80
2018-12-27T13:50:18.787Z,67.70
2018-12-27T13:55:22.460Z,69.40
2018-12-27T14:00:26.128Z,70.10
2018-12-27T14:05:30.101Z,68.80
2018-12-27T14:10:33.806Z,69.70
2018-12-27T14:15:37.746Z,71.30
2018-12-27T14:20:41.420Z,70.40
2018-12-27T14:25:45.899Z,71.80
2018-12-27T14:30:49.573Z,70.60
2018-12-27T14:35:53.493Z,72.10
2018-12-27T14:40:57.202Z,72.20
2018-12-27T14:46:00.862Z,73.90
2018-12-27T14:51:04.545Z,72.40
2018-12-27T14:56:08.552Z,73.20
2018-12-27T15:01:12.265Z,73.70
2018-12-27T15:06:16.306Z,75.40
2018-12-27T15:11:20.263Z,74.90
2018-12-27T15:16:24.201Z,73.90
2018-12-27T15:21:27.950Z,75.20
2018-12-27T15:26:31.624Z,76.60
2018-12-27T15:31:35.640Z,77.40
2018-12-27T15:36:39.643Z,77.50
2018-12-27T15:41:43.628Z,77.00
2018-12-27T15:46:47.322Z,76.00
2018-12-27T15:51:51.009Z,75.80
2018-12-27T15:56:54.933Z,76.60
2018-12-27T16:01:59.167Z,75.80
2018-12-27T16:07:02.994Z,75.80
2018-12-27T16:12:06.777Z,75.70
2018-12-27T16:17:10.444Z,76.00
2018-12-27T16:22:14.145Z,75.20
2018-12-27T16:27:18.180Z,75.00
2018-12-27T16:32:21.870Z,75.20
2018-12-27T16:37:25.555Z,75.60
2018-12-27T16:42:29.516Z,77.00
2018-12-27T16:47:33.471Z,76.60
2018-12-27T16:52:37.291Z,76.40
2018-12-27T16:57:41.275Z,76.60
2018-12-27T17:02:45.017Z,77.10
2018-12-27T17:07:48.737Z,77.40
2018-12-27T17:12:52.775Z,77.50
2018-12-27T17:17:56.495Z,77.60
2018-12-27T17:23:00.177Z,77.60
2018-12-27T17:28:04.389Z,76.80
2018-12-27T17:33:08.141Z,76.60
2018-12-27T17:38:11.819Z,76.70
2018-12-27T17:43:15.492Z,76.60
2018-12-27T17:48:19.269Z,76.60
2018-12-27T17:53:22.995Z,75.60
2018-12-27T17:58:27.033Z,75.90
2018-12-27T18:03:30.814Z,75.70
2018-12-27T18:08:34.483Z,76.40
2018-12-27T18:13:38.478Z,75.20
2018-12-27T18:18:42.140Z,74.30
2018-12-27T18:23:45.832Z,74.10
2018-12-27T18:28:49.763Z,74.50
2018-12-27T18:33:54.350Z,72.90
2018-12-27T18:38:58.109Z,73.00
2018-12-27T18:44:01.905Z,72.40
2018-12-27T18:49:06.007Z,72.30
2018-12-27T18:54:10.817Z,71.80
2018-12-27T18:59:14.700Z,71.00
2018-12-27T19:04:18.416Z,70.90
2018-12-27T19:09:23.229Z,70.20
2018-12-27T19:14:26.920Z,69.30
2018-12-27T19:19:30.615Z,68.10
2018-12-27T19:24:34.899Z,67.70
2018-12-27T19:29:38.600Z,68.50
2018-12-27T19:34:42.347Z,70.00
2018-12-27T19:39:46.085Z,70.10
2018-12-27T19:44:49.788Z,71.10
2018-12-27T19:49:53.854Z,72.30
2018-12-27T19:54:57.630Z,72.60
2018-12-27T20:00:02.649Z,72.80
2018-12-27T20:05:06.537Z,74.00
2018-12-27T20:10:10.403Z,74.10
2018-12-27T20:15:14.917Z,74.20
2018-12-27T20:20:18.812Z,75.00
2018-12-27T20:25:22.829Z,75.50
2018-12-27T20:30:26.575Z,75.70
2018-12-27T20:35:30.260Z,75.40
2018-12-27T20:40:33.941Z,75.30
2018-12-27T20:45:37.645Z,75.60
2018-12-27T20:50:41.573Z,76.00
2018-12-27T20:55:45.585Z,76.30
2018-12-27T21:00:49.249Z,77.00
2018-12-27T21:05:53.003Z,77.40
2018-12-27T21:10:57.082Z,77.60
2018-12-27T21:16:00.932Z,77.20
2018-12-27T21:21:05.261Z,77.90
2018-12-27T21:26:09.297Z,77.60
2018-12-27T21:31:13.039Z,78.70
2018-12-27T21:36:16.726Z,79.00
2018-12-27T21:41:20.387Z,79.10
2018-12-27T21:46:24.609Z,79.60
2018-12-27T21:51:29.148Z,80.30
2018-12-27T21:56:33.040Z,81.10
2018-12-27T22:01:38.963Z,81.10
2018-12-27T22:06:42.648Z,81.80
2018-12-27T22:11:46.581Z,81.70
2018-12-27T22:16:50.685Z,82.40
2018-12-27T22:21:54.426Z,81.10
2018-12-27T22:26:58.076Z,80.90
2018-12-27T22:32:01.753Z,80.90
2018-12-27T22:37:05.724Z,81.80
2018-12-27T22:42:09.448Z,82.10
2018-12-27T22:47:13.123Z,82.60
2018-12-27T22:52:16.787Z,83.00
2018-12-27T22:57:20.457Z,82.80
2018-12-27T23:02:24.143Z,83.30
2018-12-27T23:07:27.916Z,83.60
2018-12-27T23:12:31.602Z,83.80
2018-12-27T23:17:35.276Z,83.90
2018-12-27T23:22:38.976Z,83.50
2018-12-27T23:27:42.896Z,83.50
2018-12-27T23:32:47.169Z,83.20
2018-12-27T23:37:51.177Z,83.00
2018-12-27T23:42:54.853Z,83.00
2018-12-27T23:47:58.555Z,82.30
2018-12-27T23:53:02.258Z,82.30
2018-12-27T23:58:06.008Z,81.70
